createdAt,value
2022-07-29T00:01:44.903Z,19.10
2022-07-29T00:04:11.795Z,19.04
2022-07-29T00:06:38.331Z,18.96
2022-07-29T00:09:05.081Z,18.95
2022-07-29T00:11:31.712Z,18.89
2022-07-29T00:13:58.198Z,18.89
2022-07-29T00:16:24.602Z,18.80
2022-07-29T00:18:51.385Z,18.85
2022-07-29T00:21:17.816Z,18.83
2022-07-29T00:23:44.489Z,18.81
2022-07-29T00:26:10.873Z,18.75
2022-07-29T00:28:37.212Z,18.73
2022-07-29T00:31:03.641Z,18.71
2022-07-29T00:33:30.124Z,18.66
2022-07-29T00:35:56.449Z,18.68
2022-07-29T00:38:23.850Z,18.74
2022-07-29T00:40:50.284Z,18.74
2022-07-29T00:43:18.819Z,18.78
2022-07-29T00:45:45.272Z,18.76
2022-07-29T00:48:11.636Z,18.81
2022-07-29T00:50:39.230Z,18.82
2022-07-29T00:53:07.939Z,18.79
2022-07-29T00:55:34.923Z,18.81
2022-07-29T00:58:01.459Z,18.84
2022-07-29T01:00:30.051Z,18.83
2022-07-29T01:02:56.521Z,18.78
2022-07-29T01:05:25.534Z,18.83
2022-07-29T01:08:14.883Z,18.83
2022-07-29T01:10:42.519Z,18.82
2022-07-29T01:13:10.171Z,18.76
2022-07-29T01:15:48.880Z,18.76
2022-07-29T01:18:26.504Z,18.79
2022-07-29T01:21:26.675Z,18.85
2022-07-29T01:23:59.130Z,18.86
2022-07-29T01:26:34.180Z,18.89
2022-07-29T01:29:40.554Z,18.97
2022-07-29T01:32:22.585Z,18.90
2022-07-29T01:35:02.355Z,18.87
2022-07-29T01:37:44.086Z,18.82
2022-07-29T01:40:20.083Z,18.85
2022-07-29T01:42:52.543Z,18.89
2022-07-29T01:45:34.019Z,18.82
2022-07-29T01:48:10.012Z,18.90
2022-07-29T01:50:49.973Z,18.91
2022-07-29T01:53:25.437Z,18.93
2022-07-29T01:55:53.085Z,18.85
2022-07-29T01:58:21.635Z,18.90
2022-07-29T02:00:49.952Z,18.92
2022-07-29T02:03:18.963Z,18.79
2022-07-29T02:05:47.949Z,18.76
2022-07-29T02:08:14.662Z,18.67
2022-07-29T02:10:43.168Z,18.70
2022-07-29T02:13:11.017Z,18.66
2022-07-29T02:15:39.334Z,18.65
2022-07-29T02:18:15.200Z,18.69
2022-07-29T02:20:49.216Z,18.64
2022-07-29T02:23:20.194Z,18.64
2022-07-29T02:25:50.058Z,18.62
2022-07-29T02:28:18.557Z,18.59
2022-07-29T02:30:46.353Z,18.63
2022-07-29T02:33:15.546Z,18.61
2022-07-29T02:35:44.024Z,18.67
2022-07-29T02:38:14.137Z,18.58
2022-07-29T02:40:44.086Z,18.58
2022-07-29T02:43:11.618Z,18.59
2022-07-29T02:45:38.026Z,18.56
2022-07-29T02:48:10.515Z,18.54
2022-07-29T02:50:45.265Z,18.49
2022-07-29T02:53:25.185Z,18.47
2022-07-29T02:56:00.316Z,18.54
2022-07-29T02:58:30.417Z,18.52
2022-07-29T03:00:59.202Z,18.48
2022-07-29T03:03:30.713Z,18.50
2022-07-29T03:05:58.842Z,18.46
2022-07-29T03:08:27.699Z,18.40
2022-07-29T03:10:54.941Z,18.46
2022-07-29T03:13:22.206Z,18.40
2022-07-29T03:15:49.196Z,18.38
2022-07-29T03:18:16.604Z,18.39
2022-07-29T03:20:43.150Z,18.33
2022-07-29T03:23:10.104Z,18.33
2022-07-29T03:25:36.449Z,18.36
2022-07-29T03:28:02.805Z,18.28
2022-07-29T03:30:29.377Z,18.24
2022-07-29T03:32:56.625Z,18.22
2022-07-29T03:35:25.234Z,18.29
2022-07-29T03:37:51.641Z,18.25
2022-07-29T03:40:52.365Z,18.20
2022-07-29T03:43:20.557Z,18.18
2022-07-29T03:45:50.701Z,18.16
2022-07-29T03:48:22.230Z,18.16
2022-07-29T03:50:50.154Z,18.19
2022-07-29T03:53:16.562Z,18.11
2022-07-29T03:55:47.162Z,18.09
2022-07-29T03:58:14.460Z,18.11
2022-07-29T04:00:42.745Z,18.10
2022-07-29T04:03:10.743Z,18.20
2022-07-29T04:05:38.509Z,18.18
2022-07-29T04:08:05.290Z,18.10
2022-07-29T04:10:33.283Z,18.00
2022-07-29T04:13:01.129Z,17.98
2022-07-29T04:15:30.769Z,17.98
2022-07-29T04:17:58.432Z,17.95
2022-07-29T04:20:24.741Z,17.89
2022-07-29T04:22:51.142Z,17.95
2022-07-29T04:25:17.724Z,17.89
2022-07-29T04:27:44.286Z,17.90
2022-07-29T04:30:10.826Z,17.87
2022-07-29T04:32:37.178Z,17.86
2022-07-29T04:35:04.006Z,17.94
2022-07-29T04:37:30.550Z,17.94
2022-07-29T04:39:56.863Z,18.01
2022-07-29T04:42:27.683Z,18.00
2022-07-29T04:44:54.366Z,17.97
2022-07-29T04:47:20.687Z,18.01
2022-07-29T04:49:47.084Z,18.02
2022-07-29T04:52:13.660Z,18.05
2022-07-29T04:54:40.057Z,18.07
2022-07-29T04:57:06.508Z,18.15
2022-07-29T04:59:32.830Z,18.11
2022-07-29T05:01:59.280Z,18.08
2022-07-29T05:04:25.697Z,18.09
2022-07-29T05:06:52.090Z,18.07
2022-07-29T05:09:18.400Z,18.09
2022-07-29T05:11:44.710Z,18.08
2022-07-29T05:14:11.511Z,18.06
2022-07-29T05:16:38.038Z,18.12
2022-07-29T05:19:04.373Z,18.31
2022-07-29T05:21:30.780Z,18.46
2022-07-29T05:23:57.426Z,18.43
2022-07-29T05:26:23.886Z,18.45
2022-07-29T05:28:50.424Z,18.49
2022-07-29T05:31:16.950Z,18.61
2022-07-29T05:33:43.870Z,18.67
2022-07-29T05:36:10.526Z,18.86
2022-07-29T05:38:37.449Z,18.88
2022-07-29T05:41:04.948Z,18.98
2022-07-29T05:43:31.568Z,19.05
2022-07-29T05:45:57.948Z,19.02
2022-07-29T05:48:24.749Z,19.05
2022-07-29T05:50:51.074Z,19.08
2022-07-29T05:53:19.978Z,19.13
2022-07-29T05:55:48.158Z,19.34
2022-07-29T05:58:14.589Z,19.36
2022-07-29T06:00:40.919Z,19.39
2022-07-29T06:03:07.251Z,19.43
2022-07-29T06:05:33.679Z,19.41
2022-07-29T06:07:59.999Z,19.35
2022-07-29T06:10:27.083Z,19.52
2022-07-29T06:12:53.741Z,19.70
2022-07-29T06:15:20.062Z,19.72
2022-07-29T06:17:59.287Z,19.63
2022-07-29T06:20:27.564Z,19.68
2022-07-29T06:22:54.118Z,19.86
2022-07-29T06:25:20.790Z,19.89
2022-07-29T06:27:47.458Z,19.99
2022-07-29T06:30:13.987Z,19.96
2022-07-29T06:32:43.261Z,20.05
2022-07-29T06:35:37.767Z,20.15
2022-07-29T06:41:18.318Z,20.23
2022-07-29T06:43:51.754Z,20.28
2022-07-29T06:46:22.345Z,20.22
2022-07-29T06:48:49.812Z,20.29
2022-07-29T06:51:16.689Z,20.20
2022-07-29T06:53:59.869Z,20.29
2022-07-29T06:56:30.674Z,20.25
2022-07-29T06:58:57.111Z,20.19
2022-07-29T07:01:23.507Z,20.26
2022-07-29T07:03:49.900Z,20.36
2022-07-29T07:06:16.339Z,20.51
2022-07-29T07:08:42.750Z,20.57
2022-07-29T07:11:09.856Z,20.75
2022-07-29T07:13:36.703Z,20.68
2022-07-29T07:16:04.141Z,20.67
2022-07-29T07:18:31.101Z,20.69
2022-07-29T07:20:57.968Z,20.97
2022-07-29T07:23:24.684Z,21.06
2022-07-29T07:25:51.617Z,21.03
2022-07-29T07:28:17.940Z,21.08
2022-07-29T07:30:46.355Z,21.07
2022-07-29T07:33:12.759Z,21.18
2022-07-29T07:35:39.159Z,21.27
2022-07-29T07:38:05.624Z,21.42
2022-07-29T07:40:32.074Z,21.47
2022-07-29T07:42:58.526Z,21.52
2022-07-29T07:45:25.038Z,21.60
2022-07-29T07:47:51.599Z,21.63
2022-07-29T07:50:18.994Z,21.68
2022-07-29T07:52:51.414Z,21.89
2022-07-29T07:55:17.971Z,21.83
2022-07-29T07:57:44.873Z,21.85
2022-07-29T08:00:13.409Z,22.09
2022-07-29T08:02:40.521Z,22.11
2022-07-29T08:05:08.246Z,22.06
2022-07-29T08:07:39.120Z,22.04
2022-07-29T08:10:06.186Z,22.14
2022-07-29T08:12:32.580Z,22.17
2022-07-29T08:14:59.327Z,22.34
2022-07-29T08:17:25.752Z,22.65
2022-07-29T08:19:52.081Z,23.05
2022-07-29T08:22:18.733Z,23.37
2022-07-29T08:24:45.205Z,23.42
2022-07-29T08:27:33.578Z,23.31
2022-07-29T08:29:58.271Z,23.19
2022-07-29T08:32:50.890Z,23.20
2022-07-29T08:35:11.266Z,22.97
2022-07-29T08:37:37.666Z,22.80
2022-07-29T08:40:04.415Z,22.71
2022-07-29T08:42:31.388Z,22.73
2022-07-29T08:44:58.848Z,22.79
2022-07-29T08:47:26.771Z,22.68
2022-07-29T08:49:53.167Z,22.67
2022-07-29T08:52:20.861Z,22.60
2022-07-29T08:54:48.110Z,22.50
2022-07-29T08:57:15.614Z,22.54
2022-07-29T08:59:47.135Z,22.50
2022-07-29T09:02:20.447Z,22.53
2022-07-29T09:04:47.170Z,22.57
2022-07-29T09:07:18.188Z,22.68
2022-07-29T09:09:45.183Z,22.76
2022-07-29T09:12:12.735Z,22.71
2022-07-29T09:14:40.026Z,22.68
2022-07-29T09:17:07.995Z,22.73
2022-07-29T09:19:36.688Z,22.68
2022-07-29T09:22:06.018Z,22.73
2022-07-29T09:24:35.400Z,22.63
2022-07-29T09:27:02.923Z,22.51
2022-07-29T09:29:32.197Z,22.47
2022-07-29T09:32:07.174Z,22.47
2022-07-29T09:34:33.884Z,22.43
2022-07-29T09:37:00.350Z,22.48
2022-07-29T09:39:45.107Z,22.53
2022-07-29T09:42:12.968Z,22.63
2022-07-29T09:44:46.033Z,22.83
2022-07-29T09:47:12.815Z,23.10
2022-07-29T09:49:56.499Z,23.41
2022-07-29T09:52:27.005Z,23.37
2022-07-29T09:54:53.539Z,23.42
2022-07-29T09:57:30.800Z,23.46
2022-07-29T10:00:18.172Z,23.74
2022-07-29T10:02:46.027Z,23.65
2022-07-29T10:05:36.236Z,23.60
2022-07-29T10:08:03.935Z,23.59
2022-07-29T10:10:34.049Z,23.61
2022-07-29T10:13:09.961Z,23.62
2022-07-29T10:15:42.394Z,23.73
2022-07-29T10:18:09.631Z,23.87
2022-07-29T10:20:36.787Z,24.04
2022-07-29T10:23:03.372Z,24.16
2022-07-29T10:25:29.806Z,24.25
2022-07-29T10:27:56.404Z,24.29
2022-07-29T10:30:24.882Z,24.29
2022-07-29T10:33:16.747Z,24.29
2022-07-29T10:35:48.994Z,24.33
2022-07-29T10:38:21.272Z,24.70
2022-07-29T10:41:03.387Z,24.58
2022-07-29T10:43:38.885Z,24.49
2022-07-29T10:46:09.784Z,24.54
2022-07-29T10:48:58.443Z,24.64
2022-07-29T10:51:24.879Z,24.84
2022-07-29T10:53:54.059Z,24.84
2022-07-29T10:56:32.553Z,25.00
2022-07-29T10:59:17.477Z,24.84
2022-07-29T11:01:52.706Z,24.83
2022-07-29T11:04:45.855Z,24.86
2022-07-29T11:07:13.514Z,24.99
2022-07-29T11:09:41.984Z,24.95
2022-07-29T11:12:39.430Z,24.85
2022-07-29T11:15:07.940Z,24.94
2022-07-29T11:17:53.453Z,25.17
2022-07-29T11:20:36.511Z,25.26
2022-07-29T11:23:22.647Z,25.43
2022-07-29T11:26:10.842Z,25.52
2022-07-29T11:28:53.329Z,25.62
2022-07-29T11:31:43.105Z,25.73
2022-07-29T11:34:29.787Z,25.93
2022-07-29T11:37:08.117Z,26.25
2022-07-29T11:39:39.742Z,26.39
2022-07-29T11:42:32.211Z,26.33
2022-07-29T11:45:44.051Z,26.32
2022-07-29T11:48:28.541Z,26.35
2022-07-29T11:50:53.411Z,26.33
2022-07-29T11:53:20.182Z,26.43
2022-07-29T11:55:55.658Z,26.63
2022-07-29T11:58:25.241Z,26.60
2022-07-29T12:00:53.104Z,26.64
2022-07-29T12:03:33.452Z,26.65
2022-07-29T12:06:02.694Z,26.58
2022-07-29T12:08:29.209Z,26.66
2022-07-29T12:10:55.679Z,26.84
2022-07-29T12:13:23.055Z,27.22
2022-07-29T12:16:05.548Z,27.23
2022-07-29T12:18:32.483Z,27.26
2022-07-29T12:21:03.616Z,27.53
2022-07-29T12:23:34.501Z,27.49
2022-07-29T12:26:02.203Z,27.64
2022-07-29T12:28:29.016Z,27.60
2022-07-29T12:30:56.609Z,27.65
2022-07-29T12:33:28.632Z,27.60
2022-07-29T12:36:06.609Z,27.49
2022-07-29T12:38:35.314Z,27.62
2022-07-29T12:41:01.826Z,27.79
2022-07-29T12:43:31.429Z,27.88
2022-07-29T12:45:58.565Z,27.93
2022-07-29T12:48:45.473Z,28.15
2022-07-29T12:51:12.278Z,28.19
2022-07-29T12:53:39.290Z,28.25
2022-07-29T12:56:20.605Z,28.55
2022-07-29T12:58:51.153Z,28.68
2022-07-29T13:01:20.066Z,28.73
2022-07-29T13:03:59.645Z,28.59
2022-07-29T13:06:41.372Z,28.52
2022-07-29T13:09:15.482Z,28.56
2022-07-29T13:11:58.777Z,28.61
2022-07-29T13:14:37.678Z,28.42
2022-07-29T13:17:06.916Z,28.49
2022-07-29T13:19:41.712Z,28.36
2022-07-29T13:22:09.541Z,28.33
2022-07-29T13:24:47.354Z,28.37
2022-07-29T13:27:18.532Z,28.43
2022-07-29T13:29:45.612Z,28.52
2022-07-29T13:32:12.403Z,28.50
2022-07-29T13:34:39.203Z,28.61
2022-07-29T13:37:05.587Z,28.62
2022-07-29T13:39:32.014Z,28.89
2022-07-29T13:41:58.775Z,29.04
2022-07-29T13:44:26.964Z,29.06
2022-07-29T13:46:53.425Z,28.96
2022-07-29T13:49:19.811Z,28.98
2022-07-29T13:51:46.291Z,28.93
2022-07-29T13:54:12.626Z,28.96
2022-07-29T13:56:38.953Z,28.78
2022-07-29T13:59:05.579Z,28.68
2022-07-29T14:01:32.040Z,28.78
2022-07-29T14:03:58.421Z,28.72
2022-07-29T14:06:24.815Z,28.79
2022-07-29T14:08:51.800Z,28.94
2022-07-29T14:11:18.276Z,29.06
2022-07-29T14:13:44.602Z,29.02
2022-07-29T14:16:11.081Z,29.13
2022-07-29T14:18:37.574Z,29.25
2022-07-29T14:21:03.964Z,29.40
2022-07-29T14:23:30.302Z,29.76
2022-07-29T14:25:56.872Z,29.92
2022-07-29T14:28:23.719Z,29.67
2022-07-29T14:30:50.290Z,29.55
2022-07-29T14:33:17.237Z,29.37
2022-07-29T14:35:43.685Z,29.26
2022-07-29T14:38:10.383Z,29.11
2022-07-29T14:40:36.859Z,29.02
2022-07-29T14:43:03.567Z,28.99
2022-07-29T14:45:30.172Z,29.05
2022-07-29T14:47:57.627Z,29.18
2022-07-29T14:50:31.568Z,28.97
2022-07-29T14:52:58.815Z,28.89
2022-07-29T14:55:25.244Z,28.78
2022-07-29T14:57:51.836Z,28.78
2022-07-29T15:00:23.216Z,28.79
2022-07-29T15:03:02.060Z,28.78
2022-07-29T15:05:29.672Z,28.79
2022-07-29T15:07:56.070Z,28.85
2022-07-29T15:10:22.405Z,28.88
2022-07-29T15:12:51.621Z,29.06
2022-07-29T15:15:18.048Z,29.13
2022-07-29T15:17:44.434Z,29.18
2022-07-29T15:20:11.129Z,29.17
2022-07-29T15:22:37.536Z,29.16
2022-07-29T15:25:04.087Z,29.25
2022-07-29T15:27:30.417Z,29.60
2022-07-29T15:29:56.832Z,29.73
2022-07-29T15:32:23.812Z,29.77
2022-07-29T15:34:50.461Z,29.80
2022-07-29T15:37:17.083Z,30.01
2022-07-29T15:39:43.458Z,29.92
2022-07-29T15:42:09.931Z,29.90
2022-07-29T15:44:36.332Z,29.92
2022-07-29T15:47:02.865Z,29.72
2022-07-29T15:49:30.837Z,29.63
2022-07-29T15:52:24.711Z,29.52
2022-07-29T15:54:56.435Z,29.35
2022-07-29T16:00:14.386Z,29.22
2022-07-29T16:02:41.025Z,29.16
2022-07-29T16:05:09.497Z,29.26
2022-07-29T16:07:36.408Z,29.18
2022-07-29T16:10:03.144Z,29.16
2022-07-29T16:12:29.504Z,29.09
2022-07-29T16:14:56.233Z,29.20
2022-07-29T16:17:22.663Z,29.03
2022-07-29T16:19:49.238Z,28.96
2022-07-29T16:22:15.842Z,28.85
2022-07-29T16:24:42.291Z,28.84
2022-07-29T16:27:09.116Z,28.83
2022-07-29T16:29:35.581Z,28.76
2022-07-29T16:32:02.027Z,28.64
2022-07-29T16:34:28.502Z,28.65
2022-07-29T16:36:54.830Z,28.52
2022-07-29T16:39:21.289Z,28.49
2022-07-29T16:41:47.826Z,28.50
2022-07-29T16:44:14.154Z,28.40
2022-07-29T16:46:44.074Z,28.18
2022-07-29T16:49:11.153Z,28.14
2022-07-29T16:51:37.859Z,28.07
2022-07-29T16:54:04.216Z,28.13
2022-07-29T16:56:30.625Z,28.05
2022-07-29T16:59:00.026Z,27.94
2022-07-29T17:01:26.409Z,27.78
2022-07-29T17:03:55.006Z,27.68
2022-07-29T17:06:25.028Z,27.57
2022-07-29T17:08:51.618Z,27.51
2022-07-29T17:11:18.751Z,27.40
2022-07-29T17:13:45.098Z,27.45
2022-07-29T17:16:11.700Z,27.32
2022-07-29T17:18:38.084Z,27.31
2022-07-29T17:21:04.432Z,27.29
2022-07-29T17:23:30.974Z,27.25
2022-07-29T17:25:57.404Z,27.19
2022-07-29T17:28:23.974Z,27.21
2022-07-29T17:30:50.659Z,27.14
2022-07-29T17:33:16.998Z,27.08
2022-07-29T17:35:43.725Z,26.99
2022-07-29T17:38:10.142Z,26.89
2022-07-29T17:40:36.914Z,26.89
2022-07-29T17:43:03.340Z,26.96
2022-07-29T17:45:49.881Z,26.83
2022-07-29T17:48:16.173Z,26.84
2022-07-29T17:50:42.802Z,26.75
2022-07-29T17:53:15.598Z,26.71
2022-07-29T17:55:43.812Z,26.64
2022-07-29T17:58:10.254Z,26.55
2022-07-29T18:00:37.274Z,26.45
2022-07-29T18:03:04.378Z,26.47
2022-07-29T18:05:31.111Z,26.86
2022-07-29T18:07:57.481Z,27.12
2022-07-29T18:10:24.165Z,26.19
2022-07-29T18:12:50.651Z,25.57
2022-07-29T18:15:17.297Z,25.65
2022-07-29T18:17:56.604Z,25.25
2022-07-29T18:20:24.506Z,24.50
2022-07-29T18:22:51.366Z,24.05
2022-07-29T18:25:17.780Z,23.55
2022-07-29T18:27:44.135Z,22.99
2022-07-29T18:30:10.742Z,22.49
2022-07-29T18:32:37.481Z,22.21
2022-07-29T18:35:04.414Z,21.69
2022-07-29T18:38:00.936Z,21.07
2022-07-29T18:40:17.306Z,20.52
2022-07-29T18:42:43.712Z,20.24
2022-07-29T18:45:14.767Z,20.29
2022-07-29T18:47:45.804Z,20.32
2022-07-29T18:50:14.139Z,20.10
2022-07-29T18:52:40.473Z,20.07
2022-07-29T18:55:08.286Z,19.74
2022-07-29T18:57:53.702Z,19.38
2022-07-29T19:00:21.884Z,19.46
2022-07-29T19:02:49.280Z,19.14
2022-07-29T19:05:15.753Z,18.96
2022-07-29T19:07:42.699Z,18.89
2022-07-29T19:10:09.456Z,18.81
2022-07-29T19:12:35.867Z,18.88
2022-07-29T19:15:02.290Z,18.88
2022-07-29T19:17:28.655Z,18.92
2022-07-29T19:19:55.096Z,18.92
2022-07-29T19:22:21.871Z,18.94
2022-07-29T19:24:51.233Z,18.94
2022-07-29T19:27:17.988Z,18.84
2022-07-29T19:29:44.479Z,18.72
2022-07-29T19:32:12.484Z,18.88
2022-07-29T19:34:38.821Z,19.14
2022-07-29T19:37:11.213Z,19.19
2022-07-29T19:39:37.538Z,19.10
2022-07-29T19:42:04.379Z,19.07
2022-07-29T19:44:31.076Z,18.89
2022-07-29T19:46:59.552Z,18.78
2022-07-29T19:49:26.204Z,18.89
2022-07-29T19:51:53.358Z,18.79
2022-07-29T19:54:20.366Z,18.99
2022-07-29T19:56:46.768Z,18.91
2022-07-29T19:59:13.096Z,18.72
2022-07-29T20:01:39.778Z,18.59
2022-07-29T20:04:06.685Z,18.48
2022-07-29T20:06:33.301Z,18.37
2022-07-29T20:09:00.005Z,18.27
2022-07-29T20:11:26.426Z,18.34
2022-07-29T20:13:52.808Z,18.63
2022-07-29T20:16:19.566Z,18.58
2022-07-29T20:18:46.013Z,18.80
2022-07-29T20:21:12.679Z,18.59
2022-07-29T20:23:39.139Z,18.50
2022-07-29T20:26:09.244Z,18.46
2022-07-29T20:28:36.060Z,18.22
2022-07-29T20:31:02.484Z,18.19
2022-07-29T20:33:29.314Z,18.11
2022-07-29T20:35:56.618Z,18.45
2022-07-29T20:38:23.068Z,18.30
2022-07-29T20:40:49.761Z,18.14
2022-07-29T20:43:16.096Z,18.11
2022-07-29T20:45:42.461Z,18.12
2022-07-29T20:48:08.876Z,18.12
2022-07-29T20:50:35.257Z,18.29
2022-07-29T20:53:01.656Z,18.35
2022-07-29T20:55:27.988Z,18.24
2022-07-29T20:57:54.324Z,18.15
2022-07-29T21:00:20.987Z,18.15
2022-07-29T21:02:47.504Z,18.16
2022-07-29T21:05:14.128Z,18.43
2022-07-29T21:07:40.726Z,18.32
2022-07-29T21:10:07.549Z,18.13
2022-07-29T21:12:33.873Z,18.04
2022-07-29T21:15:00.382Z,18.00
2022-07-29T21:17:26.712Z,17.95
2022-07-29T21:19:53.097Z,17.96
2022-07-29T21:22:20.394Z,17.94
2022-07-29T21:24:46.753Z,17.92
2022-07-29T21:27:20.753Z,17.97
2022-07-29T21:29:48.120Z,17.94
2022-07-29T21:32:29.628Z,17.91
2022-07-29T21:34:56.661Z,17.90
2022-07-29T21:37:23.410Z,17.87
2022-07-29T21:39:49.783Z,17.87
2022-07-29T21:42:16.125Z,17.89
2022-07-29T21:44:42.713Z,17.90
2022-07-29T21:47:09.587Z,17.86
2022-07-29T21:49:36.280Z,17.87
2022-07-29T21:52:04.128Z,17.86
2022-07-29T21:54:31.412Z,17.80
2022-07-29T21:56:57.958Z,17.68
2022-07-29T21:59:25.245Z,17.66
2022-07-29T22:01:51.703Z,17.62
2022-07-29T22:04:18.485Z,17.59
2022-07-29T22:06:44.940Z,17.58
2022-07-29T22:09:11.500Z,17.53
2022-07-29T22:11:37.930Z,17.59
2022-07-29T22:14:05.266Z,17.63
2022-07-29T22:16:31.874Z,17.63
2022-07-29T22:18:58.379Z,17.67
2022-07-29T22:21:24.799Z,17.66
2022-07-29T22:23:51.208Z,17.63
2022-07-29T22:26:17.777Z,17.66
2022-07-29T22:28:44.129Z,17.63
2022-07-29T22:31:10.685Z,17.62
2022-07-29T22:33:37.053Z,17.68
2022-07-29T22:36:03.649Z,17.76
2022-07-29T22:38:30.237Z,17.93
2022-07-29T22:41:00.499Z,17.91
2022-07-29T22:43:28.069Z,17.88
2022-07-29T22:45:54.446Z,17.66
2022-07-29T22:48:20.891Z,17.57
2022-07-29T22:50:47.867Z,17.53
2022-07-29T22:53:14.200Z,17.51
2022-07-29T22:55:40.616Z,17.48
2022-07-29T22:58:06.971Z,17.47
2022-07-29T23:00:33.496Z,17.50
2022-07-29T23:02:59.975Z,17.50
2022-07-29T23:05:26.419Z,17.52
2022-07-29T23:07:53.020Z,17.52
2022-07-29T23:10:19.403Z,17.54
2022-07-29T23:12:46.080Z,17.50
2022-07-29T23:15:12.964Z,17.55
2022-07-29T23:17:39.399Z,17.53
2022-07-29T23:20:07.598Z,17.54
2022-07-29T23:22:34.549Z,17.54
2022-07-29T23:25:01.360Z,17.56
2022-07-29T23:27:28.092Z,17.56
2022-07-29T23:29:54.416Z,17.61
2022-07-29T23:32:21.100Z,17.58
2022-07-29T23:34:47.514Z,17.70
2022-07-29T23:37:13.860Z,17.81
2022-07-29T23:39:40.573Z,17.76
2022-07-29T23:42:07.040Z,17.63
2022-07-29T23:44:33.477Z,17.56
2022-07-29T23:47:00.146Z,17.56
2022-07-29T23:49:26.867Z,17.52
2022-07-29T23:51:53.231Z,17.55
2022-07-29T23:54:19.981Z,17.57
2022-07-29T23:56:46.668Z,17.56
2022-07-29T23:59:12.999Z,17.56
